Time;durP1;ratioP1;P1;durP2;ratioP2;P2;SDS_P1;SDS_P2;PMS_P1;PMS_P2;Temp;Humidity;BMP_temperature;BMP_pressure;BME280_temperature;BME280_humidity;BME280_pressure;Samples;Min_cycle;Max_cycle;Signal;HPM_P1;HPM_P2
2022/12/20 00:01:14;;;;;;;20.93;11.90;;;5.60;86.50;;;;;;5026588;28;20475;-74
2022/12/20 00:03:40;;;;;;;13.63;8.40;;;5.60;86.00;;;;;;5027246;28;20231;-74
2022/12/20 00:06:06;;;;;;;27.10;12.37;;;5.60;86.00;;;;;;5023886;28;20471;-75
2022/12/20 00:08:33;;;;;;;26.20;13.10;;;5.60;86.20;;;;;;5026049;28;20433;-74
2022/12/20 00:11:01;;;;;;;21.63;11.90;;;5.60;86.20;;;;;;5049772;28;20562;-74
2022/12/20 00:13:26;;;;;;;15.90;10.43;;;5.60;86.50;;;;;;5042525;28;20432;-73
2022/12/20 00:16:05;;;;;;;20.33;11.40;;;5.60;86.50;;;;;;5044831;28;20520;-74
2022/12/20 00:18:31;;;;;;;17.27;9.27;;;5.50;86.60;;;;;;5051338;28;20256;-73
2022/12/20 00:21:01;;;;;;;15.97;8.40;;;5.50;86.60;;;;;;5052972;28;20505;-74
2022/12/20 00:23:28;;;;;;;16.93;8.10;;;5.40;86.80;;;;;;5048439;28;20444;-74
2022/12/20 00:26:06;;;;;;;21.27;10.90;;;5.40;86.80;;;;;;5048244;28;20440;-74
2022/12/20 00:28:33;;;;;;;17.67;9.90;;;5.40;86.90;;;;;;5047151;28;20503;-73
2022/12/20 00:30:59;;;;;;;24.90;12.60;;;5.40;86.90;;;;;;5049582;28;20486;-73
2022/12/20 00:33:25;;;;;;;29.10;15.67;;;5.40;86.90;;;;;;5046659;28;20412;-74
2022/12/20 00:35:50;;;;;;;29.03;15.50;;;5.40;86.90;;;;;;5029851;28;20421;-75
2022/12/20 00:38:16;;;;;;;31.70;15.80;;;5.30;86.80;;;;;;5024833;28;20471;-74
2022/12/20 00:40:42;;;;;;;26.23;13.57;;;5.20;86.90;;;;;;5030288;28;20304;-75
2022/12/20 00:43:07;;;;;;;23.47;12.50;;;5.20;87.30;;;;;;5028693;28;20241;-75
2022/12/20 00:45:33;;;;;;;28.40;14.03;;;5.10;87.30;;;;;;5028770;28;20185;-75
2022/12/20 00:47:58;;;;;;;21.40;11.27;;;5.10;87.40;;;;;;5027962;28;20281;-75
2022/12/20 00:50:24;;;;;;;26.90;13.60;;;5.10;87.60;;;;;;5018634;28;20266;-74
2022/12/20 00:52:50;;;;;;;25.70;12.40;;;5.10;87.60;;;;;;5021519;28;20286;-76
2022/12/20 00:55:15;;;;;;;27.60;13.40;;;5.10;87.60;;;;;;5022337;28;20267;-74
2022/12/20 00:57:41;;;;;;;31.23;13.50;;;5.10;87.60;;;;;;5025684;28;20196;-74
2022/12/20 01:00:07;;;;;;;30.30;12.20;;;5.00;87.70;;;;;;5018902;28;20221;-74
2022/12/20 01:02:33;;;;;;;23.60;11.70;;;5.00;87.80;;;;;;5024729;28;20248;-75
2022/12/20 01:04:58;;;;;;;23.73;11.33;;;5.00;88.00;;;;;;5026161;28;20462;-74
2022/12/20 01:07:24;;;;;;;26.93;14.60;;;5.00;88.30;;;;;;5025485;28;20193;-74
2022/12/20 01:09:50;;;;;;;29.77;14.90;;;5.00;88.40;;;;;;5022037;28;20185;-75
2022/12/20 01:12:16;;;;;;;35.53;17.77;;;5.00;88.30;;;;;;5024175;28;20470;-74
2022/12/20 01:14:42;;;;;;;29.77;16.60;;;5.00;88.30;;;;;;5017757;28;20189;-73
2022/12/20 01:17:07;;;;;;;32.93;16.87;;;5.00;88.30;;;;;;5025698;28;20432;-74
2022/12/20 01:19:33;;;;;;;33.80;18.30;;;5.00;88.40;;;;;;5020855;28;20216;-74
2022/12/20 01:21:59;;;;;;;45.83;21.67;;;5.00;88.60;;;;;;5019613;28;20217;-76
2022/12/20 01:24:25;;;;;;;36.00;18.57;;;4.90;88.40;;;;;;5019540;28;20266;-75
2022/12/20 01:26:50;;;;;;;36.20;19.27;;;5.00;88.60;;;;;;5021211;28;20178;-74
2022/12/20 01:29:17;;;;;;;33.30;16.60;;;5.00;88.40;;;;;;5017129;28;20511;-73
2022/12/20 01:31:43;;;;;;;36.60;17.70;;;5.00;88.40;;;;;;5024799;28;20241;-75
2022/12/20 01:34:09;;;;;;;28.07;16.23;;;5.10;88.30;;;;;;5027014;28;20428;-74
2022/12/20 01:36:39;;;;;;;37.13;17.03;;;5.00;88.10;;;;;;5021005;28;20436;-74
2022/12/20 01:39:13;;;;;;;34.73;16.40;;;5.00;88.30;;;;;;5023710;28;20566;-75
2022/12/20 01:41:40;;;;;;;37.50;18.53;;;5.00;88.40;;;;;;5024045;28;20459;-75
2022/12/20 01:44:25;;;;;;;33.67;17.17;;;5.00;88.60;;;;;;5025083;28;20504;-74
2022/12/20 01:46:52;;;;;;;32.33;17.60;;;5.00;88.60;;;;;;5022317;28;20567;-74
2022/12/20 01:49:33;;;;;;;37.90;18.47;;;5.00;88.30;;;;;;5025595;28;20483;-75
2022/12/20 01:52:07;;;;;;;41.47;19.30;;;5.00;88.30;;;;;;5019730;28;20609;-75
2022/12/20 01:54:43;;;;;;;42.83;19.30;;;5.00;88.40;;;;;;5022183;28;20409;-75
2022/12/20 01:57:16;;;;;;;28.40;15.13;;;4.90;88.60;;;;;;5023567;28;20431;-73
2022/12/20 01:59:45;;;;;;;43.27;19.53;;;4.90;88.70;;;;;;5021701;28;20468;-74
2022/12/20 02:02:11;;;;;;;35.40;17.60;;;4.90;88.90;;;;;;5027137;28;20570;-74
2022/12/20 02:04:37;;;;;;;29.77;15.80;;;5.00;88.70;;;;;;5021416;28;20959;-74
2022/12/20 02:07:05;;;;;;;25.13;13.97;;;5.00;88.60;;;;;;5018366;28;20563;-74
2022/12/20 02:09:34;;;;;;;24.40;12.43;;;5.00;88.40;;;;;;5017740;28;20434;-75
2022/12/20 02:12:15;;;;;;;21.13;11.83;;;4.90;88.60;;;;;;5021804;28;20637;-74
2022/12/20 02:14:55;;;;;;;21.50;12.90;;;4.90;88.90;;;;;;5020451;28;20923;-73
2022/12/20 02:17:49;;;;;;;19.90;12.20;;;4.90;88.90;;;;;;5021671;28;20931;-74
2022/12/20 02:20:26;;;;;;;26.13;12.80;;;4.90;88.90;;;;;;5029744;28;20472;-74
2022/12/20 02:23:01;;;;;;;32.70;13.70;;;5.00;88.90;;;;;;5021542;28;20543;-74
2022/12/20 02:26:20;;;;;;;28.70;13.23;;;5.00;88.40;;;;;;5030540;28;20533;-75
2022/12/20 02:29:14;;;;;;;25.83;14.33;;;4.90;88.40;;;;;;4967886;28;20429;-73
2022/12/20 02:31:45;;;;;;;28.83;13.97;;;4.90;88.60;;;;;;5024445;28;21002;-75
2022/12/20 02:34:12;;;;;;;21.87;12.90;;;4.90;88.60;;;;;;5025425;28;20810;-75
2022/12/20 02:36:38;;;;;;;28.57;13.30;;;4.90;88.70;;;;;;5029051;28;20420;-73
2022/12/20 02:39:04;;;;;;;27.33;15.10;;;4.90;88.70;;;;;;5026334;28;20549;-74
2022/12/20 02:41:38;;;;;;;31.73;15.47;;;4.90;88.70;;;;;;5028112;28;20452;-75
2022/12/20 02:46:58;;;;;;;26.97;14.33;;;4.80;89.00;;;;;;5027271;28;20492;-74
2022/12/20 02:49:28;;;;;;;25.53;14.63;;;4.80;89.00;;;;;;5029196;28;20425;-74
2022/12/20 02:51:56;;;;;;;25.03;13.93;;;4.80;89.20;;;;;;5035135;28;20475;-73
2022/12/20 02:54:22;;;;;;;27.67;15.53;;;4.80;89.00;;;;;;5032567;28;20433;-74
2022/12/20 02:56:47;;;;;;;24.90;14.30;;;4.80;89.20;;;;;;5031783;28;20461;-73
2022/12/20 02:59:19;;;;;;;23.00;13.00;;;4.90;89.20;;;;;;5024730;28;20966;-75
2022/12/20 03:01:48;;;;;;;28.67;13.90;;;4.90;89.00;;;;;;5017769;28;20206;-72
2022/12/20 03:04:15;;;;;;;24.13;13.17;;;4.90;88.90;;;;;;5022517;28;20431;-74
2022/12/20 03:06:55;;;;;;;28.23;14.63;;;4.90;88.90;;;;;;5022502;28;20428;-73
2022/12/20 03:09:21;;;;;;;26.33;14.40;;;5.00;88.90;;;;;;5024862;28;20509;-74
2022/12/20 03:11:46;;;;;;;26.77;14.40;;;4.90;88.70;;;;;;5020937;28;20938;-75
2022/12/20 03:14:12;;;;;;;25.97;13.77;;;5.00;88.90;;;;;;5025947;28;20196;-74
2022/12/20 03:16:38;;;;;;;23.83;14.10;;;5.00;88.90;;;;;;5016540;28;20268;-74
2022/12/20 03:19:03;;;;;;;28.90;14.40;;;5.00;88.70;;;;;;5025175;28;20582;-74
2022/12/20 03:21:29;;;;;;;37.80;16.57;;;5.10;88.70;;;;;;5020471;28;20277;-74
2022/12/20 03:23:55;;;;;;;32.27;14.10;;;5.10;88.60;;;;;;5022210;28;20189;-74
2022/12/20 03:26:20;;;;;;;22.10;13.10;;;5.10;88.60;;;;;;5023417;28;20190;-74
2022/12/20 03:28:46;;;;;;;21.87;13.33;;;5.10;88.40;;;;;;5027276;28;20606;-73
2022/12/20 03:31:12;;;;;;;24.43;13.73;;;5.20;88.10;;;;;;5023481;28;20213;-74
2022/12/20 03:33:37;;;;;;;19.73;12.60;;;5.10;88.10;;;;;;5021559;28;20451;-73
2022/12/20 03:36:03;;;;;;;23.83;14.27;;;5.10;88.10;;;;;;5027675;28;20300;-74
2022/12/20 03:38:29;;;;;;;23.43;13.53;;;5.10;88.00;;;;;;5023623;28;20239;-73
2022/12/20 03:40:54;;;;;;;24.67;13.50;;;5.10;88.00;;;;;;5021415;28;20259;-74
2022/12/20 03:43:20;;;;;;;24.93;14.60;;;5.10;88.10;;;;;;5024196;28;20555;-75
2022/12/20 03:45:45;;;;;;;23.10;12.40;;;5.10;88.10;;;;;;5018909;28;20192;-73
2022/12/20 03:48:11;;;;;;;23.37;12.60;;;5.10;88.10;;;;;;5020938;28;20619;-73
2022/12/20 03:50:36;;;;;;;27.73;13.30;;;5.10;88.10;;;;;;5026145;28;20216;-75
2022/12/20 03:53:02;;;;;;;30.20;15.20;;;5.10;88.40;;;;;;5022862;28;20327;-73
2022/12/20 03:55:28;;;;;;;28.53;16.07;;;5.20;88.10;;;;;;5024271;28;20196;-74
2022/12/20 03:57:53;;;;;;;33.23;16.13;;;5.10;87.80;;;;;;5018842;28;20189;-72
2022/12/20 04:00:19;;;;;;;31.73;16.40;;;5.10;87.80;;;;;;5027072;28;20312;-74
2022/12/20 04:02:45;;;;;;;27.50;15.13;;;5.10;88.00;;;;;;5016506;28;20583;-73
2022/12/20 04:05:11;;;;;;;30.93;14.87;;;5.10;88.10;;;;;;5023744;28;20646;-73
2022/12/20 04:07:37;;;;;;;29.20;17.00;;;5.10;88.30;;;;;;5023628;28;20710;-73
2022/12/20 04:10:03;;;;;;;33.60;17.50;;;5.00;88.40;;;;;;5026027;28;20204;-74
2022/12/20 04:12:28;;;;;;;35.60;17.70;;;5.10;88.40;;;;;;5020993;28;20840;-74
2022/12/20 04:14:54;;;;;;;30.17;16.57;;;5.10;88.00;;;;;;5029856;28;20443;-73
2022/12/20 04:17:20;;;;;;;34.77;17.23;;;5.10;88.00;;;;;;5022533;28;20189;-73
2022/12/20 04:19:45;;;;;;;31.33;15.07;;;5.00;88.10;;;;;;5029282;28;20212;-73
2022/12/20 04:22:11;;;;;;;28.83;16.30;;;5.10;88.40;;;;;;5027898;28;20213;-73
2022/12/20 04:24:36;;;;;;;28.90;16.73;;;5.10;88.30;;;;;;5027981;28;20177;-73
2022/12/20 04:27:02;;;;;;;31.00;17.47;;;5.10;88.40;;;;;;5023437;28;20264;-73
2022/12/20 04:29:28;;;;;;;36.20;18.33;;;5.10;88.30;;;;;;5024944;28;20189;-73
2022/12/20 04:31:54;;;;;;;38.10;17.60;;;5.00;88.30;;;;;;5021951;28;20271;-72
2022/12/20 04:34:19;;;;;;;35.30;18.40;;;5.00;88.40;;;;;;5025993;28;20197;-74
2022/12/20 04:36:45;;;;;;;35.23;18.63;;;4.90;88.40;;;;;;5021142;28;20617;-73
2022/12/20 04:39:10;;;;;;;28.33;16.80;;;4.90;88.60;;;;;;5023416;28;20206;-74
2022/12/20 04:41:36;;;;;;;31.67;17.03;;;5.00;88.70;;;;;;5022308;28;20205;-74
2022/12/20 04:44:02;;;;;;;34.63;16.97;;;5.00;88.70;;;;;;5026815;28;20224;-73
2022/12/20 04:46:27;;;;;;;30.23;15.33;;;5.00;88.70;;;;;;5032090;28;20189;-72
2022/12/20 04:48:53;;;;;;;26.83;13.33;;;5.00;88.70;;;;;;5028156;28;20181;-75
2022/12/20 04:51:19;;;;;;;24.57;13.70;;;5.00;88.90;;;;;;5030133;28;20221;-74
2022/12/20 04:53:47;;;;;;;28.40;14.00;;;5.10;89.20;;;;;;5016961;28;20233;-73
2022/12/20 04:56:20;;;;;;;30.67;16.30;;;5.20;89.00;;;;;;5023392;28;20428;-74
2022/12/20 04:58:48;;;;;;;27.33;14.47;;;5.20;88.60;;;;;;5022990;28;20551;-74
2022/12/20 05:01:13;;;;;;;26.20;14.43;;;5.20;88.40;;;;;;5024652;28;20461;-75
2022/12/20 05:03:39;;;;;;;26.03;13.33;;;5.20;88.70;;;;;;5022033;28;20830;-72
2022/12/20 05:06:06;;;;;;;33.00;15.50;;;5.30;88.90;;;;;;5025644;28;20420;-73
2022/12/20 05:08:32;;;;;;;28.37;15.47;;;5.30;88.90;;;;;;5019770;28;20511;-73
2022/12/20 05:10:58;;;;;;;26.27;14.90;;;5.30;88.60;;;;;;5021900;28;20966;-73
2022/12/20 05:13:23;;;;;;;28.20;15.90;;;5.30;88.60;;;;;;5019830;28;20448;-73
2022/12/20 05:15:53;;;;;;;30.03;16.90;;;5.30;88.70;;;;;;5026804;28;20189;-74
2022/12/20 05:18:19;;;;;;;28.97;14.17;;;5.30;88.90;;;;;;5022347;28;20189;-74
2022/12/20 05:20:45;;;;;;;22.63;12.47;;;5.40;88.70;;;;;;5021702;28;20523;-74
2022/12/20 05:28:27;;;;;;;21.93;10.67;;;5.60;88.10;;;;;;5024997;28;20927;-77
2022/12/20 05:30:52;;;;;;;23.50;11.60;;;5.60;88.30;;;;;;5024641;28;20463;-75
2022/12/20 05:33:18;;;;;;;23.40;12.60;;;5.60;88.30;;;;;;5023717;28;20197;-76
2022/12/20 05:35:44;;;;;;;25.47;13.43;;;5.60;88.30;;;;;;5027395;28;20244;-77
2022/12/20 05:38:09;;;;;;;24.00;14.33;;;5.70;88.30;;;;;;5025935;28;20583;-77
2022/12/20 05:40:35;;;;;;;28.37;14.77;;;5.70;88.10;;;;;;5033347;28;20185;-76
2022/12/20 05:43:01;;;;;;;29.73;15.30;;;5.70;87.70;;;;;;5026860;28;20197;-77
2022/12/20 05:45:27;;;;;;;24.57;14.93;;;5.70;87.40;;;;;;5024390;28;20188;-76
2022/12/20 05:47:52;;;;;;;28.60;13.77;;;5.70;87.30;;;;;;5025018;28;20461;-74
2022/12/20 05:50:18;;;;;;;26.60;13.80;;;5.70;87.30;;;;;;5019600;28;20467;-76
2022/12/20 05:52:44;;;;;;;20.50;12.73;;;5.70;87.40;;;;;;5026690;28;20259;-74
2022/12/20 05:55:09;;;;;;;30.23;13.97;;;5.70;87.60;;;;;;5029816;28;20185;-75
2022/12/20 05:57:35;;;;;;;22.23;13.70;;;5.70;87.40;;;;;;5032450;28;20189;-75
2022/12/20 06:00:03;;;;;;;24.17;13.77;;;5.70;87.40;;;;;;5027928;28;20311;-74
2022/12/20 06:02:28;;;;;;;27.70;14.37;;;5.70;87.60;;;;;;5022699;28;20459;-74
2022/12/20 06:04:54;;;;;;;33.63;17.30;;;5.70;87.70;;;;;;5022574;28;20436;-75
2022/12/20 06:07:20;;;;;;;29.50;16.07;;;5.70;87.70;;;;;;5026337;28;20186;-74
2022/12/20 06:09:45;;;;;;;25.27;13.63;;;5.70;87.70;;;;;;5023138;28;20428;-75
2022/12/20 06:12:11;;;;;;;32.93;13.70;;;5.70;87.60;;;;;;5023100;28;20479;-74
2022/12/20 06:14:37;;;;;;;23.93;12.80;;;5.70;87.60;;;;;;5023962;28;20712;-75
2022/12/20 06:17:02;;;;;;;38.23;19.10;;;5.70;87.80;;;;;;5024312;28;20605;-75
2022/12/20 06:19:28;;;;;;;34.57;18.20;;;5.60;87.80;;;;;;5028048;28;20241;-75
2022/12/20 06:21:53;;;;;;;36.30;18.87;;;5.50;87.70;;;;;;5025951;28;20259;-73
2022/12/20 06:24:20;;;;;;;31.57;16.60;;;5.50;87.70;;;;;;5026621;28;20188;-75
2022/12/20 06:26:46;;;;;;;31.87;15.57;;;5.40;87.80;;;;;;5026379;28;20189;-74
2022/12/20 06:29:13;;;;;;;30.63;16.13;;;5.50;88.30;;;;;;5014582;28;20435;-75
2022/12/20 06:31:39;;;;;;;30.60;16.07;;;5.50;88.30;;;;;;5026534;28;20464;-75
2022/12/20 06:34:05;;;;;;;24.07;12.60;;;5.50;88.40;;;;;;5023074;28;20459;-74
2022/12/20 06:36:31;;;;;;;27.47;15.93;;;5.60;88.40;;;;;;5024550;28;20452;-75
2022/12/20 06:38:56;;;;;;;27.90;15.17;;;5.60;88.60;;;;;;5023659;28;20851;-74
2022/12/20 06:41:22;;;;;;;26.77;13.50;;;5.60;88.60;;;;;;5021308;28;20227;-74
2022/12/20 06:43:48;;;;;;;28.07;13.90;;;5.70;88.60;;;;;;5021765;28;20564;-75
2022/12/20 06:46:13;;;;;;;28.13;13.10;;;5.70;88.40;;;;;;5019586;28;20219;-75
2022/12/20 06:48:39;;;;;;;25.67;12.20;;;5.80;88.40;;;;;;5020945;28;20616;-75
2022/12/20 06:51:04;;;;;;;21.50;13.37;;;5.80;88.40;;;;;;5019393;28;20213;-74
2022/12/20 06:53:30;;;;;;;25.10;11.30;;;5.90;88.10;;;;;;5025274;28;20203;-75
2022/12/20 06:55:56;;;;;;;18.97;9.63;;;5.90;87.70;;;;;;5029016;28;20276;-74
2022/12/20 06:58:21;;;;;;;22.10;11.97;;;5.90;88.00;;;;;;5025086;28;20670;-74
2022/12/20 07:00:47;;;;;;;21.00;11.10;;;6.00;87.70;;;;;;5017791;28;20208;-75
2022/12/20 07:03:13;;;;;;;20.80;10.83;;;6.00;87.70;;;;;;5023082;28;20629;-75
2022/12/20 07:05:39;;;;;;;24.23;12.00;;;6.10;87.60;;;;;;5019524;28;20190;-75
2022/12/20 07:08:05;;;;;;;36.97;16.17;;;6.10;87.40;;;;;;5025486;28;20780;-76
2022/12/20 07:10:32;;;;;;;31.40;14.70;;;6.20;86.90;;;;;;5019910;28;20416;-75
2022/12/20 07:12:58;;;;;;;29.57;14.60;;;6.20;86.50;;;;;;5026939;28;20724;-75
2022/12/20 07:15:24;;;;;;;27.70;14.87;;;6.20;86.20;;;;;;5016011;28;20511;-75
2022/12/20 07:17:50;;;;;;;36.13;13.73;;;6.30;86.00;;;;;;5023953;28;20507;-74
2022/12/20 07:20:16;;;;;;;29.93;13.77;;;6.30;86.00;;;;;;5021886;28;20295;-75
2022/12/20 07:22:42;;;;;;;44.03;15.93;;;6.30;86.00;;;;;;5028847;28;20510;-73
2022/12/20 07:25:08;;;;;;;36.77;16.93;;;6.20;85.70;;;;;;5030354;28;20770;-75
2022/12/20 07:27:34;;;;;;;33.50;17.37;;;6.30;85.60;;;;;;5028867;28;20256;-75
2022/12/20 07:30:00;;;;;;;29.53;15.80;;;6.20;85.30;;;;;;5025174;28;20456;-74
2022/12/20 07:32:25;;;;;;;34.53;15.77;;;6.10;85.30;;;;;;5025398;28;20286;-74
2022/12/20 07:34:51;;;;;;;32.87;16.43;;;6.10;85.50;;;;;;5016581;28;20193;-74
2022/12/20 07:37:16;;;;;;;27.60;14.63;;;6.10;85.70;;;;;;5025169;28;20281;-76
2022/12/20 07:39:42;;;;;;;24.63;12.80;;;6.10;86.00;;;;;;5031423;28;20676;-75
2022/12/20 07:42:08;;;;;;;34.50;14.27;;;6.10;86.20;;;;;;5020790;28;20308;-75
2022/12/20 07:44:34;;;;;;;32.60;15.30;;;6.20;85.90;;;;;;5030915;28;20177;-74
2022/12/20 07:46:59;;;;;;;38.67;18.97;;;6.20;85.60;;;;;;5026866;28;20429;-75
2022/12/20 07:49:25;;;;;;;30.10;14.97;;;6.30;85.30;;;;;;5027011;28;20802;-74
2022/12/20 07:51:54;;;;;;;34.90;15.80;;;6.30;85.20;;;;;;5024240;28;20724;-74
2022/12/20 07:54:25;;;;;;;36.10;15.00;;;6.30;85.00;;;;;;5021661;28;20198;-75
2022/12/20 07:56:59;;;;;;;19.70;11.87;;;6.30;85.00;;;;;;5025670;28;20435;-74
2022/12/20 07:59:34;;;;;;;27.60;13.80;;;6.40;85.20;;;;;;5029295;28;20487;-74
2022/12/20 08:02:00;;;;;;;25.07;14.40;;;6.40;85.20;;;;;;5022668;28;20543;-75
2022/12/20 08:04:29;;;;;;;25.90;13.10;;;6.50;85.20;;;;;;5036178;28;20792;-75
2022/12/20 08:06:58;;;;;;;32.43;13.77;;;6.50;85.30;;;;;;5032221;28;20416;-74
2022/12/20 08:09:25;;;;;;;27.83;13.47;;;6.60;85.20;;;;;;5027188;28;20432;-75
2022/12/20 08:11:52;;;;;;;30.37;13.83;;;6.70;84.90;;;;;;5030940;28;20525;-73
2022/12/20 08:14:18;;;;;;;27.70;14.20;;;6.80;84.70;;;;;;5024873;28;20519;-74
2022/12/20 08:16:44;;;;;;;35.47;12.40;;;6.90;84.60;;;;;;5028763;28;20444;-74
2022/12/20 08:19:10;;;;;;;24.73;12.80;;;6.90;84.40;;;;;;5037051;28;20475;-74
2022/12/20 08:21:35;;;;;;;32.30;13.53;;;7.00;84.00;;;;;;5028683;28;20201;-74
2022/12/20 08:24:01;;;;;;;21.07;11.30;;;7.10;83.70;;;;;;5030212;28;20450;-75
2022/12/20 08:26:27;;;;;;;26.80;11.80;;;7.20;83.60;;;;;;5021282;28;20207;-73
2022/12/20 08:28:53;;;;;;;23.10;11.87;;;7.20;83.30;;;;;;5027786;28;20729;-74
2022/12/20 08:31:19;;;;;;;18.27;10.80;;;7.30;82.80;;;;;;5026569;28;20258;-74
2022/12/20 08:33:45;;;;;;;23.50;10.53;;;7.30;82.70;;;;;;5023654;28;20797;-73
2022/12/20 08:36:12;;;;;;;17.73;9.60;;;7.40;82.70;;;;;;5024926;28;20182;-74
2022/12/20 08:38:38;;;;;;;15.80;9.83;;;7.40;82.70;;;;;;5024278;28;20248;-74
2022/12/20 08:41:12;;;;;;;24.40;9.90;;;7.50;82.50;;;;;;5021355;28;20534;-74
2022/12/20 08:43:38;;;;;;;18.30;8.43;;;7.60;82.50;;;;;;5021174;28;20429;-74
2022/12/20 08:46:05;;;;;;;19.20;7.97;;;7.70;81.90;;;;;;5022884;28;20435;-76
2022/12/20 08:48:32;;;;;;;19.50;9.60;;;7.90;81.10;;;;;;5016373;28;20515;-75
2022/12/20 08:51:00;;;;;;;19.57;9.60;;;8.00;80.50;;;;;;5024517;28;20637;-74
2022/12/20 08:53:26;;;;;;;19.83;9.97;;;8.10;80.20;;;;;;5022752;28;20439;-75
2022/12/20 08:55:52;;;;;;;20.67;9.50;;;8.10;80.20;;;;;;5026235;28;20412;-75
2022/12/20 08:58:19;;;;;;;16.13;8.57;;;8.10;80.30;;;;;;5026008;28;20435;-76
2022/12/20 09:00:45;;;;;;;19.00;8.40;;;8.30;79.90;;;;;;5027257;28;20428;-73
2022/12/20 09:03:12;;;;;;;13.63;8.27;;;8.40;79.50;;;;;;5025527;28;20602;-75
2022/12/20 09:05:48;;;;;;;19.73;9.30;;;8.50;79.00;;;;;;5027710;28;20455;-75
2022/12/20 09:08:15;;;;;;;19.03;8.80;;;8.50;78.70;;;;;;5020070;28;20431;-75
2022/12/20 09:10:41;;;;;;;15.17;8.40;;;8.50;78.40;;;;;;5025774;28;20417;-76
2022/12/20 09:13:06;;;;;;;18.30;8.73;;;8.50;78.30;;;;;;5025290;28;20437;-75
2022/12/20 09:15:35;;;;;;;18.30;9.43;;;8.50;78.30;;;;;;5031234;28;20456;-77
2022/12/20 09:18:01;;;;;;;21.40;10.97;;;8.60;78.10;;;;;;5025325;28;20625;-74
2022/12/20 09:20:27;;;;;;;127.53;23.23;;;8.60;78.10;;;;;;5022720;28;20479;-75
2022/12/20 09:22:53;;;;;;;14.70;8.13;;;8.60;78.30;;;;;;5030711;28;20205;-75
2022/12/20 09:25:19;;;;;;;21.70;8.73;;;8.70;78.30;;;;;;5020795;28;20864;-75
2022/12/20 09:27:44;;;;;;;17.47;9.13;;;8.80;77.60;;;;;;5018637;28;20181;-74
2022/12/20 09:30:10;;;;;;;19.27;8.87;;;8.80;77.10;;;;;;5020869;28;20188;-74
2022/12/20 09:32:36;;;;;;;19.97;9.73;;;8.80;76.80;;;;;;5024364;28;20209;-75
2022/12/20 09:35:02;;;;;;;14.97;8.10;;;8.80;77.00;;;;;;5024568;28;20856;-73
2022/12/20 09:37:31;;;;;;;17.10;9.67;;;8.80;77.10;;;;;;5024655;28;20276;-75
2022/12/20 09:39:58;;;;;;;17.07;9.57;;;8.80;77.30;;;;;;5027208;28;20499;-73
2022/12/20 09:42:28;;;;;;;24.77;9.43;;;8.80;77.10;;;;;;5022190;28;20462;-75
2022/12/20 09:45:08;;;;;;;20.33;8.30;;;8.80;77.30;;;;;;5030096;28;20490;-74
2022/12/20 09:47:36;;;;;;;18.43;8.30;;;8.80;77.40;;;;;;5023866;28;20452;-73
2022/12/20 09:50:03;;;;;;;19.90;9.53;;;8.90;77.40;;;;;;5029034;28;20442;-75
2022/12/20 09:52:56;;;;;;;14.07;7.50;;;8.90;77.10;;;;;;5024254;28;20478;-75
2022/12/20 09:55:45;;;;;;;16.57;8.23;;;9.00;77.00;;;;;;5023945;28;20427;-76
2022/12/20 09:58:35;;;;;;;13.07;7.60;;;9.10;77.00;;;;;;5025380;28;20462;-78
2022/12/20 10:01:15;;;;;;;12.07;7.80;;;9.10;77.10;;;;;;5023587;28;20460;-75
2022/12/20 10:03:40;;;;;;;14.80;6.87;;;9.30;77.00;;;;;;5018616;28;20478;-73
2022/12/20 10:06:15;;;;;;;13.37;7.40;;;9.40;76.40;;;;;;5023280;28;20420;-76
2022/12/20 10:09:09;;;;;;;18.70;8.00;;;9.50;76.20;;;;;;5021175;28;20192;-75
2022/12/20 10:11:51;;;;;;;19.10;9.30;;;9.50;75.70;;;;;;5019286;28;20543;-76
2022/12/20 10:14:33;;;;;;;10.80;6.83;;;9.50;75.50;;;;;;5026383;28;20436;-76
2022/12/20 10:17:12;;;;;;;22.43;7.97;;;9.50;75.80;;;;;;5022389;28;20449;-76
2022/12/20 10:20:03;;;;;;;2.77;2.60;;;9.60;75.50;;;;;;5027259;28;20867;-76
2022/12/20 10:22:34;;;;;;;13.07;5.60;;;9.60;74.90;;;;;;5021962;28;20456;-75
2022/12/20 10:25:12;;;;;;;12.70;7.43;;;9.60;74.90;;;;;;5022248;28;20416;-73
2022/12/20 10:27:43;;;;;;;16.93;8.40;;;9.60;75.20;;;;;;5023252;28;20535;-74
2022/12/20 10:30:18;;;;;;;10.80;6.70;;;9.60;75.20;;;;;;5041072;28;20976;-75
2022/12/20 10:32:45;;;;;;;24.37;6.90;;;9.60;75.50;;;;;;5042885;28;20455;-74
2022/12/20 10:35:13;;;;;;;16.40;7.30;;;9.70;75.50;;;;;;5043399;28;20479;-72
2022/12/20 10:38:02;;;;;;;12.60;7.00;;;9.70;75.20;;;;;;5040438;28;20466;-74
2022/12/20 10:40:35;;;;;;;12.00;6.80;;;9.80;75.10;;;;;;5041717;28;20467;-74
2022/12/20 10:43:02;;;;;;;11.93;7.30;;;9.70;74.90;;;;;;5041935;28;20447;-76
2022/12/20 10:45:37;;;;;;;19.30;8.33;;;9.80;74.80;;;;;;5030936;28;20435;-73
2022/12/20 10:48:34;;;;;;;18.27;8.17;;;9.70;74.80;;;;;;5031861;28;20424;-74
2022/12/20 10:51:09;;;;;;;12.50;8.30;;;9.70;75.10;;;;;;5028144;28;20563;-74
2022/12/20 10:53:36;;;;;;;18.83;9.60;;;9.60;75.20;;;;;;5023832;28;20455;-74
2022/12/20 10:56:12;;;;;;;14.83;9.00;;;9.60;75.40;;;;;;5023010;28;20443;-74
2022/12/20 10:58:38;;;;;;;16.23;9.37;;;9.50;75.70;;;;;;5026307;28;20562;-75
2022/12/20 11:01:17;;;;;;;14.73;8.77;;;9.40;75.90;;;;;;5021761;28;20578;-76
2022/12/20 11:04:25;;;;;;;17.50;8.70;;;9.40;75.70;;;;;;5018562;28;20212;-73
2022/12/20 11:06:51;;;;;;;15.90;8.30;;;9.40;76.10;;;;;;4957035;28;20450;-75
2022/12/20 11:09:24;;;;;;;14.17;7.97;;;9.40;76.20;;;;;;4960716;28;20432;-76
2022/12/20 11:11:59;;;;;;;13.80;8.33;;;9.50;76.20;;;;;;4950882;28;20216;-76
2022/12/20 11:14:25;;;;;;;14.33;7.93;;;9.60;76.10;;;;;;4966413;28;20435;-75
2022/12/20 11:16:53;;;;;;;12.73;7.70;;;9.60;75.90;;;;;;4962436;28;20467;-76
2022/12/20 11:19:37;;;;;;;14.40;6.30;;;9.70;75.50;;;;;;4967076;28;20494;-74
2022/12/20 11:22:26;;;;;;;10.47;6.50;;;9.80;75.40;;;;;;4970534;28;20473;-74
2022/12/20 11:25:18;;;;;;;18.87;6.83;;;9.90;75.50;;;;;;4971460;28;20428;-75
2022/12/20 11:27:56;;;;;;;13.87;8.43;;;10.00;75.70;;;;;;4973143;28;20430;-73
2022/12/20 11:30:44;;;;;;;17.87;7.67;;;10.10;75.20;;;;;;4967782;28;20441;-76
2022/12/20 11:33:25;;;;;;;13.43;7.17;;;10.10;75.40;;;;;;4973220;28;20965;-74
2022/12/20 11:35:59;;;;;;;5.13;3.17;;;10.20;75.20;;;;;;4969903;28;20427;-76
2022/12/20 11:38:40;;;;;;;19.47;9.20;;;10.30;74.80;;;;;;4969912;28;20425;-74
2022/12/20 11:41:14;;;;;;;15.73;9.60;;;10.30;74.60;;;;;;4965929;28;20466;-75
2022/12/20 11:44:28;;;;;;;19.00;10.40;;;10.30;74.20;;;;;;5015121;28;20451;-75
2022/12/20 11:47:17;;;;;;;19.70;9.03;;;10.30;74.50;;;;;;5018153;28;20436;-75
2022/12/20 11:50:01;;;;;;;19.37;1.17;;;10.20;74.50;;;;;;5031492;28;20423;-75
2022/12/20 11:52:50;;;;;;;24.20;2.70;;;10.20;74.80;;;;;;5023421;28;20490;-76
2022/12/20 11:55:35;;;;;;;29.67;3.23;;;10.20;74.60;;;;;;5029174;28;20447;-75
2022/12/20 11:58:10;;;;;;;33.77;3.53;;;10.30;74.50;;;;;;5023747;28;20443;-74
2022/12/20 12:00:38;;;;;;;34.40;4.33;;;10.20;74.60;;;;;;5025342;28;20505;-75
2022/12/20 12:03:16;;;;;;;35.17;4.50;;;10.20;74.80;;;;;;5034761;28;20440;-74
2022/12/20 12:05:54;;;;;;;32.10;4.17;;;10.20;74.30;;;;;;5023259;28;21140;-75
2022/12/20 12:08:38;;;;;;;31.53;4.10;;;10.20;74.50;;;;;;5031938;28;20421;-75
2022/12/20 12:11:25;;;;;;;32.27;4.47;;;10.20;73.60;;;;;;5023658;28;20459;-75
2022/12/20 12:13:52;;;;;;;32.43;4.53;;;10.20;73.70;;;;;;5029479;28;20411;-75
2022/12/20 12:16:36;;;;;;;27.30;3.70;;;10.20;73.60;;;;;;5022317;28;20424;-75
2022/12/20 12:19:02;;;;;;;36.30;5.10;;;10.20;73.60;;;;;;5030910;28;20475;-76
2022/12/20 12:21:37;;;;;;;27.40;4.50;;;10.30;73.70;;;;;;5026591;28;20497;-76
2022/12/20 12:24:02;;;;;;;21.47;3.80;;;10.30;73.50;;;;;;5034834;28;20212;-76
2022/12/20 12:26:31;;;;;;;18.60;4.83;;;10.40;72.90;;;;;;5028671;28;20852;-75
2022/12/20 12:29:09;;;;;;;17.07;5.00;;;10.40;71.80;;;;;;5023886;28;20189;-75
2022/12/20 12:31:56;;;;;;;18.37;4.23;;;10.50;71.80;;;;;;5024069;28;21931;-75
2022/12/20 12:34:47;;;;;;;9.27;5.80;;;10.50;71.40;;;;;;5021338;28;20432;-74
2022/12/20 12:37:21;;;;;;;7.00;4.50;;;10.60;71.70;;;;;;5010565;28;20458;-75
2022/12/20 12:39:47;;;;;;;0.40;0.30;;;10.60;71.40;;;;;;5025243;28;20546;-74
2022/12/20 12:42:46;;;;;;;0.00;0.00;;;10.60;70.80;;;;;;5025109;28;20563;-75
2022/12/20 12:45:41;;;;;;;8.47;4.40;;;10.70;70.80;;;;;;5017508;28;20189;-75
2022/12/20 12:48:39;;;;;;;5.90;3.97;;;10.80;70.70;;;;;;5023676;28;20428;-75
2022/12/20 12:51:05;;;;;;;12.53;5.80;;;10.90;70.70;;;;;;4969223;28;20487;-75
2022/12/20 12:53:49;;;;;;;10.23;5.73;;;10.90;71.60;;;;;;4970801;28;20509;-75
2022/12/20 12:56:27;;;;;;;10.23;5.37;;;10.90;71.70;;;;;;4978340;28;20866;-74
2022/12/20 12:59:04;;;;;;;4.77;3.50;;;10.80;71.80;;;;;;4965966;28;20501;-74
2022/12/20 13:01:42;;;;;;;1.37;1.33;;;10.90;71.80;;;;;;4965057;28;20477;-76